createdAt,value
2018-12-23T00:01:41.730Z,10.63
2018-12-23T00:04:45.864Z,8.23
2018-12-23T00:07:49.229Z,11.27
2018-12-23T00:10:52.527Z,10.50
2018-12-23T00:13:56.133Z,12.13
2018-12-23T00:16:59.424Z,12.27
2018-12-23T00:20:03.236Z,12.20
2018-12-23T00:23:06.470Z,10.63
2018-12-23T00:26:09.735Z,10.53
2018-12-23T00:29:12.972Z,10.17
2018-12-23T00:32:16.228Z,13.03
2018-12-23T00:35:20.593Z,7.63
2018-12-23T00:38:24.042Z,9.77
2018-12-23T00:41:27.301Z,8.83
2018-12-23T00:44:30.527Z,11.30
2018-12-23T00:47:33.764Z,12.27
2018-12-23T00:50:37.020Z,8.90
2018-12-23T00:53:40.321Z,12.00
2018-12-23T00:56:43.545Z,10.90
2018-12-23T00:59:46.769Z,13.77
2018-12-23T01:02:53.889Z,10.33
2018-12-23T01:05:57.109Z,12.30
2018-12-23T01:09:00.345Z,17.37
2018-12-23T01:12:03.570Z,11.60
2018-12-23T01:15:06.889Z,10.10
2018-12-23T01:18:10.452Z,9.33
2018-12-23T01:21:14.352Z,11.63
2018-12-23T01:24:17.589Z,8.07
2018-12-23T01:27:20.817Z,5.27
2018-12-23T01:30:24.439Z,5.20
2018-12-23T01:33:28.784Z,4.60
2018-12-23T01:36:32.010Z,6.87
2018-12-23T01:39:35.264Z,8.57
2018-12-23T01:42:38.516Z,8.87
2018-12-23T01:45:41.732Z,7.60
2018-12-23T01:48:44.958Z,13.33
2018-12-23T01:51:48.213Z,7.87
2018-12-23T01:54:51.452Z,8.73
2018-12-23T01:57:55.140Z,11.50
2018-12-23T02:00:59.199Z,11.60
2018-12-23T02:04:04.557Z,10.80
2018-12-23T02:07:07.866Z,10.00
2018-12-23T02:10:11.252Z,13.87
2018-12-23T02:13:14.693Z,12.53
2018-12-23T02:16:17.932Z,14.60
2018-12-23T02:19:34.400Z,7.50
2018-12-23T02:22:37.620Z,12.60
2018-12-23T02:25:40.945Z,9.27
2018-12-23T02:28:44.152Z,12.80
2018-12-23T02:31:47.438Z,11.37
2018-12-23T02:34:50.748Z,10.90
2018-12-23T02:37:53.983Z,10.97
2018-12-23T02:40:57.296Z,12.20
2018-12-23T02:44:00.597Z,12.60
2018-12-23T02:47:03.840Z,13.73
2018-12-23T02:50:07.113Z,9.00
2018-12-23T02:53:10.343Z,15.43
2018-12-23T02:56:13.644Z,13.80
2018-12-23T02:59:16.907Z,10.87
2018-12-23T03:02:20.217Z,12.13
2018-12-23T03:05:24.386Z,9.83
2018-12-23T03:08:28.001Z,8.10
2018-12-23T03:11:31.266Z,14.33
2018-12-23T03:14:34.526Z,10.77
2018-12-23T03:17:37.776Z,11.90
2018-12-23T03:20:41.091Z,9.57
2018-12-23T03:23:44.467Z,10.57
2018-12-23T03:26:47.996Z,9.83
2018-12-23T03:29:51.470Z,12.57
2018-12-23T03:32:54.774Z,13.23
2018-12-23T03:36:00.972Z,10.03
2018-12-23T03:39:06.102Z,12.37
2018-12-23T03:42:09.340Z,9.57
2018-12-23T03:45:12.590Z,10.40
2018-12-23T03:48:16.129Z,12.90
2018-12-23T03:51:21.597Z,13.83
2018-12-23T03:54:24.934Z,9.57
2018-12-23T03:57:30.946Z,13.70
2018-12-23T04:00:34.178Z,14.80
2018-12-23T04:03:37.508Z,17.17
2018-12-23T04:06:40.713Z,10.00
2018-12-23T04:09:43.936Z,12.70
2018-12-23T04:12:48.436Z,14.20
2018-12-23T04:15:51.665Z,9.60
2018-12-23T04:18:54.901Z,10.27
2018-12-23T04:21:58.321Z,14.90
2018-12-23T04:25:01.726Z,13.63
2018-12-23T04:28:05.305Z,9.17
2018-12-23T04:31:08.846Z,11.60
2018-12-23T04:34:12.205Z,11.93
2018-12-23T04:37:15.510Z,12.17
2018-12-23T04:40:19.000Z,10.70
2018-12-23T04:43:22.224Z,10.60
2018-12-23T04:46:25.477Z,7.27
2018-12-23T04:49:28.798Z,11.67
2018-12-23T04:52:32.105Z,14.20
2018-12-23T04:55:35.338Z,12.20
2018-12-23T04:58:55.473Z,6.30
2018-12-23T05:01:58.717Z,9.27
2018-12-23T05:05:01.941Z,10.80
2018-12-23T05:08:05.219Z,10.90
2018-12-23T05:11:09.255Z,12.63
2018-12-23T05:14:13.926Z,12.27
2018-12-23T05:17:17.324Z,11.20
2018-12-23T05:20:20.682Z,10.63
2018-12-23T05:23:23.946Z,10.13
2018-12-23T05:26:27.215Z,9.13
2018-12-23T05:29:31.677Z,9.23
2018-12-23T05:32:35.054Z,14.23
2018-12-23T05:35:38.330Z,12.07
2018-12-23T05:38:41.593Z,10.50
2018-12-23T05:41:44.819Z,10.00
2018-12-23T05:44:48.047Z,10.27
2018-12-23T05:47:51.372Z,6.87
2018-12-23T05:50:54.629Z,8.57
2018-12-23T05:53:57.938Z,10.77
2018-12-23T05:57:01.211Z,11.13
2018-12-23T06:00:04.789Z,7.57
2018-12-23T06:03:08.017Z,8.53
2018-12-23T06:06:11.284Z,9.13
2018-12-23T06:09:14.605Z,9.57
2018-12-23T06:12:17.828Z,8.37
2018-12-23T06:15:21.048Z,10.60
2018-12-23T06:18:24.273Z,11.97
2018-12-23T06:21:27.573Z,10.33
2018-12-23T06:24:30.791Z,9.40
2018-12-23T06:27:35.024Z,9.17
2018-12-23T06:30:38.241Z,8.13
2018-12-23T06:33:41.529Z,13.87
2018-12-23T06:36:44.798Z,14.83
2018-12-23T06:39:48.100Z,9.03
2018-12-23T06:42:51.384Z,9.20
2018-12-23T06:45:54.583Z,11.70
2018-12-23T06:48:57.809Z,9.80
2018-12-23T06:52:01.037Z,10.17
2018-12-23T06:55:04.373Z,9.27
2018-12-23T06:58:07.600Z,7.73
2018-12-23T07:01:10.829Z,10.43
2018-12-23T07:04:14.053Z,8.20
2018-12-23T07:07:18.816Z,8.50
2018-12-23T07:10:22.395Z,8.13
2018-12-23T07:13:25.621Z,8.57
2018-12-23T07:16:28.881Z,8.00
2018-12-23T07:19:32.093Z,10.03
2018-12-23T07:22:35.373Z,11.67
2018-12-23T07:25:38.598Z,7.20
2018-12-23T07:28:41.905Z,10.43
2018-12-23T07:31:45.124Z,9.17
2018-12-23T07:34:48.361Z,6.77
2018-12-23T07:37:51.589Z,11.73
2018-12-23T07:40:54.893Z,6.07
2018-12-23T07:43:58.120Z,8.27
2018-12-23T07:47:01.339Z,6.30
2018-12-23T07:50:05.877Z,4.43
2018-12-23T07:53:09.101Z,7.90
2018-12-23T07:56:12.321Z,6.40
2018-12-23T07:59:15.621Z,7.47
2018-12-23T08:02:18.882Z,11.17
2018-12-23T08:05:22.117Z,9.50
2018-12-23T08:08:25.401Z,8.70
2018-12-23T08:11:28.620Z,12.33
2018-12-23T08:14:32.924Z,9.80
2018-12-23T08:17:36.149Z,7.10
2018-12-23T08:20:39.369Z,5.57
2018-12-23T08:23:42.689Z,10.07
2018-12-23T08:26:45.911Z,8.70
2018-12-23T08:29:49.229Z,10.83
2018-12-23T08:32:52.449Z,7.17
2018-12-23T08:35:55.669Z,11.30
2018-12-23T08:38:58.892Z,7.10
2018-12-23T08:42:02.181Z,9.97
2018-12-23T08:45:05.771Z,10.87
2018-12-23T08:48:08.999Z,10.40
2018-12-23T08:51:12.304Z,9.00
2018-12-23T08:54:15.510Z,9.20
2018-12-23T08:57:18.736Z,13.33
2018-12-23T09:00:21.997Z,9.27
2018-12-23T09:03:25.218Z,11.40
2018-12-23T09:06:28.498Z,14.53
2018-12-23T09:09:31.723Z,11.60
2018-12-23T09:12:35.025Z,13.53
2018-12-23T09:15:38.453Z,9.20
2018-12-23T09:18:41.692Z,11.70
2018-12-23T09:21:44.927Z,9.57
2018-12-23T09:24:48.237Z,8.53
2018-12-23T09:27:51.489Z,8.60
2018-12-23T09:30:54.756Z,13.40
2018-12-23T09:33:57.979Z,17.17
2018-12-23T09:37:01.267Z,10.90
2018-12-23T09:40:04.553Z,11.33
2018-12-23T09:43:07.781Z,8.30
2018-12-23T09:46:11.034Z,10.83
2018-12-23T09:49:14.268Z,13.10
2018-12-23T09:52:17.528Z,9.83
2018-12-23T09:59:05.944Z,29.60
2018-12-23T10:02:10.768Z,12.57
2018-12-23T10:05:15.598Z,12.23
2018-12-23T10:08:20.437Z,12.37
2018-12-23T10:11:24.990Z,10.80
2018-12-23T10:14:29.546Z,6.60
2018-12-23T10:17:34.093Z,12.97
2018-12-23T10:20:38.642Z,8.87
2018-12-23T10:23:43.188Z,14.90
2018-12-23T10:26:47.997Z,9.77
2018-12-23T10:29:52.830Z,13.27
2018-12-23T10:32:57.373Z,12.40
2018-12-23T10:36:02.191Z,10.73
2018-12-23T10:39:07.506Z,10.77
2018-12-23T10:42:12.380Z,15.87
2018-12-23T10:45:17.311Z,11.07
2018-12-23T10:48:21.855Z,11.83
2018-12-23T10:51:26.413Z,10.70
2018-12-23T10:54:30.958Z,8.47
2018-12-23T10:57:35.814Z,6.87
2018-12-23T11:00:40.372Z,11.53
2018-12-23T11:03:44.982Z,13.17
2018-12-23T11:06:50.131Z,9.53
2018-12-23T11:10:02.037Z,13.60
2018-12-23T11:13:01.427Z,9.77
2018-12-23T11:16:05.991Z,8.53
2018-12-23T11:19:10.540Z,8.93
2018-12-23T11:22:15.723Z,11.13
2018-12-23T11:25:20.256Z,15.90
2018-12-23T11:28:24.822Z,10.33
2018-12-23T11:31:29.447Z,10.87
2018-12-23T11:34:34.045Z,9.53
2018-12-23T11:37:39.065Z,10.97
2018-12-23T11:40:43.632Z,12.50
2018-12-23T11:43:48.170Z,12.50
2018-12-23T11:46:52.726Z,15.07
2018-12-23T11:49:57.272Z,8.90
2018-12-23T11:53:02.095Z,8.97
2018-12-23T11:56:06.927Z,11.17
2018-12-23T11:59:11.469Z,10.47
2018-12-23T12:02:16.054Z,7.97
2018-12-23T12:05:20.919Z,8.07
2018-12-23T12:08:25.468Z,13.80
2018-12-23T12:11:30.023Z,13.97
2018-12-23T12:14:34.918Z,11.17
2018-12-23T12:17:39.734Z,11.73
2018-12-23T12:20:44.570Z,10.67
2018-12-23T12:23:49.121Z,9.10
2018-12-23T12:26:53.928Z,10.77
2018-12-23T12:29:58.561Z,10.07
2018-12-23T12:33:03.394Z,9.67
2018-12-23T12:36:08.224Z,7.63
2018-12-23T12:39:12.775Z,10.03
2018-12-23T12:42:17.327Z,8.87
2018-12-23T12:45:21.950Z,7.20
2018-12-23T12:48:26.841Z,7.70
2018-12-23T12:51:31.388Z,8.37
2018-12-23T12:54:35.937Z,7.87
2018-12-23T12:57:40.826Z,7.97
2018-12-23T13:00:45.656Z,6.70
2018-12-23T13:03:50.208Z,6.17
2018-12-23T13:06:54.831Z,6.67
2018-12-23T13:09:59.379Z,14.87
2018-12-23T13:13:04.277Z,15.77
2018-12-23T13:16:09.116Z,11.10
2018-12-23T13:19:13.943Z,8.27
2018-12-23T13:22:18.569Z,7.70
2018-12-23T13:25:23.123Z,9.03
2018-12-23T13:28:27.673Z,11.30
2018-12-23T13:31:32.228Z,10.47
2018-12-23T13:34:36.779Z,7.57
2018-12-23T13:37:41.332Z,6.83
2018-12-23T13:41:06.835Z,9.43
2018-12-23T13:44:34.000Z,10.80
2018-12-23T13:47:58.654Z,6.43
2018-12-23T13:51:41.659Z,5.80
2018-12-23T13:55:11.957Z,11.97
2018-12-23T13:58:43.211Z,6.37
2018-12-23T14:02:04.177Z,9.97
2018-12-23T14:05:25.612Z,9.43
2018-12-23T14:08:52.808Z,6.60
2018-12-23T14:11:58.230Z,10.07
2018-12-23T14:15:02.769Z,6.30
2018-12-23T14:18:07.312Z,4.97
2018-12-23T14:21:11.847Z,6.87
2018-12-23T14:24:16.384Z,5.23
2018-12-23T14:27:20.929Z,7.47
2018-12-23T14:30:25.458Z,6.97
2018-12-23T14:33:29.996Z,7.13
2018-12-23T14:36:34.528Z,7.03
2018-12-23T14:39:39.061Z,7.43
2018-12-23T14:42:43.898Z,8.97
2018-12-23T14:45:48.436Z,6.30
2018-12-23T14:48:52.981Z,7.57
2018-12-23T14:51:57.518Z,5.90
2018-12-23T14:55:02.301Z,5.60
2018-12-23T14:58:06.841Z,5.80
2018-12-23T15:01:11.757Z,4.87
2018-12-23T15:04:16.593Z,5.47
2018-12-23T15:07:21.132Z,5.50
2018-12-23T15:10:25.959Z,7.73
2018-12-23T15:13:30.790Z,3.47
2018-12-23T15:16:35.622Z,4.53
2018-12-23T15:19:40.563Z,7.50
2018-12-23T15:22:45.105Z,4.80
2018-12-23T15:25:49.644Z,7.93
2018-12-23T15:28:54.193Z,4.13
2018-12-23T15:31:59.068Z,6.03
2018-12-23T15:35:03.600Z,5.80
2018-12-23T15:38:08.143Z,3.63
2018-12-23T15:41:12.680Z,4.20
2018-12-23T15:44:17.561Z,5.17
2018-12-23T15:47:22.529Z,4.83
2018-12-23T15:50:27.069Z,3.23
2018-12-23T15:53:31.609Z,5.73
2018-12-23T15:56:36.136Z,3.50
2018-12-23T15:59:40.676Z,4.67
2018-12-23T16:02:45.214Z,4.00
2018-12-23T16:05:49.746Z,3.23
2018-12-23T16:08:54.285Z,4.83
2018-12-23T16:11:59.138Z,4.37
2018-12-23T16:15:03.677Z,4.93
2018-12-23T16:18:08.218Z,4.13
2018-12-23T16:21:12.754Z,4.53
2018-12-23T16:24:17.562Z,2.20
2018-12-23T16:27:22.094Z,2.67
2018-12-23T16:30:26.642Z,1.77
2018-12-23T16:33:31.251Z,3.67
2018-12-23T16:36:35.786Z,2.87
2018-12-23T16:39:40.327Z,2.27
2018-12-23T16:42:44.859Z,2.73
2018-12-23T16:45:49.401Z,40.57
2018-12-23T16:48:54.184Z,4.40
2018-12-23T16:51:58.715Z,4.00
2018-12-23T16:55:03.261Z,2.60
2018-12-23T16:58:07.804Z,3.10
2018-12-23T17:01:12.677Z,2.43
2018-12-23T17:04:17.225Z,1.63
2018-12-23T17:07:21.760Z,2.13
2018-12-23T17:10:26.561Z,3.90
2018-12-23T17:13:31.104Z,2.50
2018-12-23T17:16:35.922Z,2.43
2018-12-23T17:19:40.792Z,2.40
2018-12-23T17:22:45.295Z,3.03
2018-12-23T17:25:50.127Z,0.90
2018-12-23T17:28:54.667Z,1.47
2018-12-23T17:31:59.228Z,1.70
2018-12-23T17:35:03.848Z,0.83
2018-12-23T17:38:08.744Z,0.60
2018-12-23T17:41:13.292Z,0.70
2018-12-23T17:44:17.845Z,0.53
2018-12-23T17:47:22.722Z,0.60
2018-12-23T17:50:27.266Z,0.83
2018-12-23T17:53:31.813Z,0.60
2018-12-23T17:56:36.355Z,0.80
2018-12-23T17:59:40.905Z,0.70
2018-12-23T18:02:49.456Z,0.80
2018-12-23T18:05:54.010Z,1.00
2018-12-23T18:08:58.806Z,0.73
2018-12-23T18:12:03.664Z,1.13
2018-12-23T18:15:08.186Z,1.50
2018-12-23T18:18:13.270Z,10.77
2018-12-23T18:21:17.802Z,1.10
2018-12-23T18:24:22.347Z,0.80
2018-12-23T18:27:26.897Z,1.00
2018-12-23T18:30:31.461Z,0.63
2018-12-23T18:33:36.345Z,1.10
2018-12-23T18:36:40.893Z,0.80
2018-12-23T18:39:45.478Z,1.13
2018-12-23T18:42:49.984Z,0.90
2018-12-23T18:45:54.764Z,2.50
2018-12-23T18:48:59.408Z,0.60
2018-12-23T18:52:05.885Z,3.37
2018-12-23T18:55:16.663Z,1.90
2018-12-23T18:58:26.402Z,2.63
2018-12-23T19:01:33.579Z,0.60
2018-12-23T19:04:41.719Z,0.53
2018-12-23T19:07:48.054Z,0.77
2018-12-23T19:11:12.191Z,1.20
2018-12-23T19:14:32.634Z,1.73
2018-12-23T19:18:18.334Z,1.53
2018-12-23T19:22:02.881Z,0.70
2018-12-23T19:25:41.477Z,3.15
2018-12-23T19:28:58.311Z,3.07
2018-12-23T19:32:31.770Z,1.03
2018-12-23T19:36:11.490Z,2.50
2018-12-23T19:39:53.893Z,1.20
2018-12-23T19:43:33.713Z,0.90
2018-12-23T19:47:00.697Z,1.03
2018-12-23T19:50:31.414Z,1.53
2018-12-23T19:53:58.597Z,1.80
2018-12-23T19:57:34.746Z,0.50
2018-12-23T20:00:59.256Z,1.23
2018-12-23T20:04:29.436Z,0.60
2018-12-23T20:08:09.025Z,0.73
2018-12-23T20:11:52.620Z,2.27
2018-12-23T20:15:02.215Z,0.70
2018-12-23T20:18:42.892Z,0.47
2018-12-23T20:22:25.705Z,1.27
2018-12-23T20:25:49.688Z,2.33
2018-12-23T20:29:33.754Z,1.10
2018-12-23T20:33:02.448Z,0.87
2018-12-23T20:36:35.432Z,0.50
2018-12-23T20:39:59.926Z,0.53
2018-12-23T20:43:30.666Z,0.87
2018-12-23T20:46:59.499Z,1.63
2018-12-23T20:50:20.571Z,0.80
2018-12-23T20:54:01.913Z,1.30
2018-12-23T20:57:56.658Z,0.67
2018-12-23T21:01:20.600Z,0.33
2018-12-23T21:04:50.617Z,0.47
2018-12-23T21:08:23.667Z,0.30
2018-12-23T21:11:53.800Z,0.27
2018-12-23T21:15:31.186Z,0.90
2018-12-23T21:19:05.629Z,0.80
2018-12-23T21:22:14.880Z,0.43
2018-12-23T21:26:04.128Z,0.10
2018-12-23T21:29:38.753Z,0.20
2018-12-23T21:33:11.032Z,0.23
2018-12-23T21:36:35.451Z,0.93
2018-12-23T21:39:53.162Z,0.40
2018-12-23T21:43:25.798Z,0.40
2018-12-23T21:46:56.173Z,0.20
2018-12-23T21:50:10.856Z,0.20
2018-12-23T21:53:43.819Z,0.53
2018-12-23T21:57:24.658Z,0.83
2018-12-23T22:00:44.923Z,0.87
2018-12-23T22:04:13.805Z,0.97
2018-12-23T22:07:34.805Z,0.30
2018-12-23T22:11:18.974Z,0.23
2018-12-23T22:14:23.512Z,0.97
2018-12-23T22:17:28.332Z,0.40
2018-12-23T22:20:32.912Z,0.67
2018-12-23T22:23:37.789Z,0.30
2018-12-23T22:26:42.337Z,0.30
2018-12-23T22:29:47.149Z,1.00
2018-12-23T22:32:51.704Z,1.50
2018-12-23T22:35:56.819Z,1.13
2018-12-23T22:39:01.650Z,0.30
2018-12-23T22:42:06.196Z,0.30
2018-12-23T22:45:10.731Z,0.30
2018-12-23T22:48:15.544Z,2.17
2018-12-23T22:51:20.100Z,0.40
2018-12-23T22:54:24.889Z,0.47
2018-12-23T22:57:29.829Z,0.47
2018-12-23T23:00:34.739Z,0.17
2018-12-23T23:03:39.280Z,1.40
2018-12-23T23:06:43.834Z,0.40
2018-12-23T23:09:48.648Z,0.20
2018-12-23T23:12:53.200Z,0.20
2018-12-23T23:15:57.745Z,0.20
2018-12-23T23:19:02.765Z,1.20
2018-12-23T23:22:07.316Z,2.37
2018-12-23T23:25:12.203Z,0.30
2018-12-23T23:28:16.754Z,0.40
2018-12-23T23:31:21.304Z,0.23
2018-12-23T23:34:25.854Z,0.43
2018-12-23T23:37:30.401Z,0.70
2018-12-23T23:40:35.235Z,0.40
2018-12-23T23:43:39.792Z,0.87
2018-12-23T23:46:44.332Z,1.50
2018-12-23T23:49:48.880Z,0.30
2018-12-23T23:52:53.433Z,0.10
2018-12-23T23:55:57.973Z,0.13
2018-12-23T23:59:02.806Z,1.93
